Time;durP1;ratioP1;P1;durP2;ratioP2;P2;SDS_P1;SDS_P2;PMS_P1;PMS_P2;Temp;Humidity;BMP_temperature;BMP_pressure;BME280_temperature;BME280_humidity;BME280_pressure;Samples;Min_cycle;Max_cycle;Signal;HPM_P1;HPM_P2
2023/02/23 00:02:10;;;;;;;;;;;;;;;5.38;100.00;99640.81;10457802;28;19932;-72
2023/02/23 00:07:11;;;;;;;;;;;;;;;5.40;100.00;99639.06;10456718;28;19960;-72
2023/02/23 00:12:15;;;;;;;;;;;;;;;5.47;100.00;99632.81;10456631;28;19927;-72
2023/02/23 00:17:17;;;;;;;;;;;;;;;5.48;100.00;99633.69;10464946;28;20019;-72
2023/02/23 00:22:19;;;;;;;;;;;;;;;5.44;100.00;99627.66;10464646;28;19924;-72
2023/02/23 00:27:20;;;;;;;;;;;;;;;5.51;100.00;99631.03;10466710;28;19929;-72
2023/02/23 00:32:23;;;;;;;;;;;;;;;5.66;100.00;99630.75;10447165;28;19921;-72
2023/02/23 00:37:25;;;;;;;;;;;;;;;6.00;100.00;99632.75;10446933;28;20007;-72
2023/02/23 00:42:31;;;;;;;;;;;;;;;6.02;100.00;99631.84;10465154;28;19960;-72
2023/02/23 00:47:35;;;;;;;;;;;;;;;6.05;100.00;99629.16;10466318;28;19956;-72
2023/02/23 00:52:37;;;;;;;;;;;;;;;6.13;100.00;99636.84;10446959;28;20301;-72
2023/02/23 00:57:39;;;;;;;;;;;;;;;6.14;100.00;99637.69;10445659;28;19921;-72
2023/02/23 01:02:41;;;;;;;;;;;;;;;6.13;100.00;99622.94;10445709;28;20267;-72
2023/02/23 01:07:46;;;;;;;;;;;;;;;6.32;100.00;99629.50;10463804;28;19927;-73
2023/02/23 01:12:48;;;;;;;;;;;;;;;6.27;100.00;99629.59;10463960;28;20374;-72
2023/02/23 01:17:50;;;;;;;;;;;;;;;6.35;100.00;99621.59;10444773;28;20011;-72
2023/02/23 01:22:51;;;;;;;;;;;;;;;6.38;100.00;99624.16;10444421;28;19924;-72
2023/02/23 01:27:53;;;;;;;;;;;;;;;6.32;99.65;99624.28;10460722;28;20007;-72
2023/02/23 01:32:55;;;;;;;;;;;;;;;6.44;99.12;99616.19;10463596;28;19927;-72
2023/02/23 01:37:56;;;;;;;;;;;;;;;6.43;98.04;99613.63;10444223;28;19920;-72
2023/02/23 01:42:58;;;;;;;;;;;;;;;6.24;99.49;99607.91;10461668;28;20369;-71
2023/02/23 01:48:03;;;;;;;;;;;;;;;6.38;98.98;99600.66;10443273;28;19928;-71
2023/02/23 01:53:04;;;;;;;;;;;;;;;6.37;99.02;99604.16;10461077;28;19924;-71
2023/02/23 01:58:14;;;;;;;;;;;;;;;6.36;99.13;99584.16;10442951;28;19945;-72
2023/02/23 02:03:25;;;;;;;;;;;;;;;6.34;97.95;99583.34;10442229;28;19968;-71
2023/02/23 02:08:31;;;;;;;;;;;;;;;6.27;99.84;99587.81;10442599;28;19950;-72
2023/02/23 02:13:36;;;;;;;;;;;;;;;6.25;98.94;99586.16;10461566;28;19920;-71
2023/02/23 02:18:49;;;;;;;;;;;;;;;6.23;99.13;99574.88;10460079;28;19921;-71
2023/02/23 02:23:51;;;;;;;;;;;;;;;6.19;99.61;99574.06;10460545;28;19928;-71
2023/02/23 02:29:05;;;;;;;;;;;;;;;6.14;100.00;99569.84;10442424;28;20366;-72
2023/02/23 02:34:07;;;;;;;;;;;;;;;6.24;98.97;99572.25;10460189;28;19943;-71
2023/02/23 02:39:21;;;;;;;;;;;;;;;6.27;98.27;99580.00;10441214;28;19974;-72
2023/02/23 02:44:23;;;;;;;;;;;;;;;6.38;97.98;99574.56;10459878;28;19921;-71
2023/02/23 02:49:28;;;;;;;;;;;;;;;6.32;98.08;99575.53;10440888;28;19924;-71
2023/02/23 02:54:55;;;;;;;;;;;;;;;6.36;97.35;99565.88;10459975;28;20027;-72
2023/02/23 04:21:11;;;;;;;;;;;;;;;6.58;96.48;99563.66;10456449;28;19990;-71
2023/02/23 04:26:12;;;;;;;;;;;;;;;6.34;98.53;99574.66;10439658;28;19921;-71
2023/02/23 04:31:15;;;;;;;;;;;;;;;6.53;97.52;99574.22;10455830;28;19921;-71
2023/02/23 04:36:16;;;;;;;;;;;;;;;6.60;97.17;99566.22;10455882;28;20366;-71
2023/02/23 04:41:18;;;;;;;;;;;;;;;6.29;97.99;99567.78;10438130;28;19931;-71
2023/02/23 04:46:20;;;;;;;;;;;;;;;6.23;99.02;99567.91;10456431;28;19921;-71
2023/02/23 04:51:22;;;;;;;;;;;;;;;6.36;98.60;99557.19;10455556;28;19967;-71
2023/02/23 04:56:24;;;;;;;;;;;;;;;6.41;99.03;99569.25;10438034;28;19921;-71
2023/02/23 05:01:25;;;;;;;;;;;;;;;6.21;100.00;99566.22;10462522;28;20281;-71
2023/02/23 05:06:27;;;;;;;;;;;;;;;6.01;100.00;99561.41;10465941;28;19943;-71
2023/02/23 05:11:29;;;;;;;;;;;;;;;5.83;100.00;99555.66;10463489;28;19927;-71
2023/02/23 05:16:31;;;;;;;;;;;;;;;5.95;100.00;99564.16;10462813;28;19928;-71
2023/02/23 05:21:32;;;;;;;;;;;;;;;5.96;100.00;99558.06;10462317;28;20366;-70
2023/02/23 05:26:34;;;;;;;;;;;;;;;6.10;100.00;99560.38;10444448;28;19921;-70
2023/02/23 05:31:35;;;;;;;;;;;;;;;6.11;100.00;99569.91;10463427;28;19921;-70
2023/02/23 05:36:37;;;;;;;;;;;;;;;5.81;100.00;99560.06;10461695;28;19920;-70
2023/02/23 05:41:39;;;;;;;;;;;;;;;5.80;100.00;99560.94;10461584;28;20301;-70
2023/02/23 05:46:40;;;;;;;;;;;;;;;5.72;100.00;99575.03;10461747;28;19920;-71
2023/02/23 05:51:42;;;;;;;;;;;;;;;5.69;100.00;99568.13;10462381;28;19947;-71
2023/02/23 05:56:43;;;;;;;;;;;;;;;5.75;100.00;99572.34;10460935;28;20389;-71
2023/02/23 06:01:45;;;;;;;;;;;;;;;5.62;100.00;99576.06;10460767;28;19924;-71
2023/02/23 06:06:46;;;;;;;;;;;;;;;5.96;100.00;99568.50;10461660;28;19926;-71
2023/02/23 06:11:48;;;;;;;;;;;;;;;5.86;100.00;99591.25;10461179;28;19974;-70
2023/02/23 06:16:50;;;;;;;;;;;;;;;5.73;100.00;99590.63;10459937;28;19920;-70
2023/02/23 06:21:54;;;;;;;;;;;;;;;5.65;100.00;99599.50;10442654;28;19920;-70
2023/02/23 06:26:56;;;;;;;;;;;;;;;5.85;100.00;99592.16;10459561;28;19928;-70
2023/02/23 06:31:58;;;;;;;;;;;;;;;5.92;100.00;99596.38;10459559;28;19928;-70
2023/02/23 06:37:01;;;;;;;;;;;;;;;5.96;100.00;99599.78;10459459;28;19920;-70
2023/02/23 06:42:03;;;;;;;;;;;;;;;6.13;100.00;99597.72;10459873;28;20358;-70
2023/02/23 06:47:05;;;;;;;;;;;;;;;6.28;100.00;99602.59;10459011;28;20448;-71
2023/02/23 06:52:07;;;;;;;;;;;;;;;6.44;100.00;99600.53;10458771;28;19928;-70
2023/02/23 06:57:08;;;;;;;;;;;;;;;6.35;100.00;99594.66;10459582;28;20344;-70
2023/02/23 07:02:11;;;;;;;;;;;;;;;6.47;100.00;99600.47;10458580;28;20011;-70
2023/02/23 07:07:13;;;;;;;;;;;;;;;6.49;99.32;99601.28;10458312;28;19927;-70
2023/02/23 07:12:15;;;;;;;;;;;;;;;6.67;99.08;99609.59;10457990;28;19925;-70
2023/02/23 07:17:16;;;;;;;;;;;;;;;6.75;97.80;99608.53;10459317;28;19927;-71
2023/02/23 07:22:18;;;;;;;;;;;;;;;6.72;98.25;99599.91;10456844;28;20400;-70
2023/02/23 07:27:19;;;;;;;;;;;;;;;6.68;99.25;99606.09;10457626;28;19927;-70
2023/02/23 07:32:21;;;;;;;;;;;;;;;6.96;96.76;99616.78;10457802;28;19928;-70
2023/02/23 07:37:23;;;;;;;;;;;;;;;6.99;95.74;99612.31;10456902;28;19924;-70
2023/02/23 07:42:25;;;;;;;;;;;;;;;7.07;95.88;99618.22;10458465;28;20313;-70
2023/02/23 07:47:30;;;;;;;;;;;;;;;7.08;95.52;99619.97;10456835;28;20346;-70
2023/02/23 07:52:31;;;;;;;;;;;;;;;7.03;97.28;99615.72;10456649;28;19920;-70
2023/02/23 07:57:33;;;;;;;;;;;;;;;7.38;93.86;99622.69;10457856;28;20350;-70
2023/02/23 08:02:35;;;;;;;;;;;;;;;7.20;96.24;99631.00;10457360;28;19932;-70
2023/02/23 08:07:36;;;;;;;;;;;;;;;7.44;94.28;99630.41;10455910;28;19921;-70
2023/02/23 08:12:38;;;;;;;;;;;;;;;7.49;93.02;99622.44;10457329;28;20386;-72
2023/02/23 08:17:40;;;;;;;;;;;;;;;7.44;94.97;99624.31;10456934;28;20267;-72
2023/02/23 08:22:42;;;;;;;;;;;;;;;7.70;91.96;99621.88;10457860;28;19994;-70
2023/02/23 08:27:53;;;;;;;;;;;;;;;7.79;92.99;99629.47;10456829;28;19920;-71
2023/02/23 08:32:54;;;;;;;;;;;;;;;8.08;90.15;99631.28;10456456;28;19930;-71
2023/02/23 08:37:56;;;;;;;;;;;;;;;8.16;89.87;99631.06;10463846;28;19924;-71
2023/02/23 08:42:58;;;;;;;;;;;;;;;8.27;88.77;99625.50;10465087;28;19921;-71
2023/02/23 08:47:59;;;;;;;;;;;;;;;8.28;89.87;99633.34;10466555;28;19920;-71
2023/02/23 08:53:01;;;;;;;;;;;;;;;8.32;90.51;99632.34;10464071;28;19920;-71
2023/02/23 08:58:03;;;;;;;;;;;;;;;8.44;89.44;99632.91;10464018;28;19992;-70
2023/02/23 09:03:05;;;;;;;;;;;;;;;8.76;86.87;99626.69;10444280;28;19925;-72
2023/02/23 09:08:07;;;;;;;;;;;;;;;8.78;87.97;99636.25;10464798;28;19920;-71
2023/02/23 09:13:12;;;;;;;;;;;;;;;8.92;86.23;99634.94;10464732;28;19921;-70
2023/02/23 09:18:13;;;;;;;;;;;;;;;8.93;87.05;99627.03;10462655;28;20391;-72
2023/02/23 09:23:15;;;;;;;;;;;;;;;8.99;88.01;99628.63;10462585;28;20015;-71
2023/02/23 09:28:18;;;;;;;;;;;;;;;8.97;88.14;99628.66;10463560;28;19970;-72
2023/02/23 09:33:20;;;;;;;;;;;;;;;9.34;85.20;99627.44;10462777;28;19920;-71
2023/02/23 09:38:23;;;;;;;;;;;;;;;9.48;85.76;99625.25;10461962;28;19921;-71
2023/02/23 09:43:24;;;;;;;;;;;;;;;9.84;81.90;99636.25;10460350;28;19932;-70
2023/02/23 09:48:27;;;;;;;;;;;;;;;10.23;80.22;99629.63;10457265;28;19982;-70
2023/02/23 09:53:38;;;;;;;;;;;;;;;10.54;79.76;99630.22;10462417;28;20469;-70
2023/02/23 09:58:39;;;;;;;;;;;;;;;11.03;76.72;99633.56;10459545;28;19920;-70
2023/02/23 10:04:07;;;;;;;;;;;;;;;11.10;74.45;99626.25;10462570;28;19921;-71
2023/02/23 10:09:13;;;;;;;;;;;;;;;11.35;73.61;99620.88;10440629;28;19927;-71
2023/02/23 10:14:24;;;;;;;;;;;;;;;11.50;73.72;99620.22;10450837;28;20023;-71
2023/02/23 10:19:35;;;;;;;;;;;;;;;11.60;73.46;99618.94;10431075;28;19924;-70
2023/02/23 10:24:50;;;;;;;;;;;;;;;11.72;72.49;99622.78;10460721;28;19921;-70
2023/02/23 10:29:57;;;;;;;;;;;;;;;11.99;70.20;99626.03;10458598;28;19928;-72
2023/02/23 10:34:59;;;;;;;;;;;;;;;12.22;69.38;99619.75;10460600;28;19956;-70
2023/02/23 10:40:01;;;;;;;;;;;;;;;12.20;69.24;99618.97;10459670;28;19921;-71
2023/02/23 10:45:02;;;;;;;;;;;;;;;12.34;68.20;99615.69;10459549;28;19920;-71
2023/02/23 10:50:05;;;;;;;;;;;;;;;12.57;68.88;99618.16;10446518;28;19921;-70
2023/02/23 10:55:21;;;;;;;;;;;;;;;12.72;66.95;99613.06;10472989;28;19920;-71
2023/02/23 11:00:31;;;;;;;;;;;;;;;12.69;68.75;99598.25;10466050;28;19920;-71
2023/02/23 11:05:33;;;;;;;;;;;;;;;12.86;68.35;99600.06;10441616;28;20363;-71
2023/02/23 11:10:34;;;;;;;;;;;;;;;13.17;64.86;99585.41;10458375;28;19952;-70
2023/02/23 11:15:42;;;;;;;;;;;;;;;13.67;64.66;99587.28;10434546;28;20308;-71
2023/02/23 11:20:51;;;;;;;;;;;;;;;13.80;64.97;99583.06;10459904;28;19921;-70
2023/02/23 11:25:54;;;;;;;;;;;;;;;14.20;60.90;99580.97;10455471;28;20128;-70
2023/02/23 11:31:00;;;;;;;;;;;;;;;14.25;60.73;99571.00;10412833;28;20456;-72
2023/02/23 11:36:22;;;;;;;;;;;;;;;14.45;61.38;99556.69;10411832;28;19964;-71
2023/02/23 11:41:23;;;;;;;;;;;;;;;14.74;60.94;99561.25;10405659;28;19921;-72
2023/02/23 11:46:26;;;;;;;;;;;;;;;15.22;59.01;99562.00;10414968;28;19924;-71
2023/02/23 11:51:30;;;;;;;;;;;;;;;15.72;56.27;99558.19;10431443;28;20386;-71
2023/02/23 11:56:32;;;;;;;;;;;;;;;14.96;59.15;99544.97;10416640;28;19967;-70
2023/02/23 12:01:34;;;;;;;;;;;;;;;15.40;57.78;99546.81;10416848;28;20008;-71
2023/02/23 12:06:37;;;;;;;;;;;;;;;15.24;58.21;99546.91;10397977;28;19932;-71
2023/02/23 12:11:41;;;;;;;;;;;;;;;15.72;57.85;99536.16;10426837;28;19955;-71
2023/02/23 12:16:47;;;;;;;;;;;;;;;15.55;59.92;99534.50;10429338;28;20347;-72
2023/02/23 12:21:57;;;;;;;;;;;;;;;15.74;57.31;99535.09;10412409;28;19927;-73
2023/02/23 12:27:25;;;;;;;;;;;;;;;15.52;57.60;99529.38;10430944;28;20370;-71
2023/02/23 12:32:29;;;;;;;;;;;;;;;14.80;60.30;99521.22;10411710;28;19967;-71
2023/02/23 12:37:36;;;;;;;;;;;;;;;14.81;60.28;99516.78;10429963;28;19960;-70
2023/02/23 12:43:00;;;;;;;;;;;;;;;14.83;62.70;99513.09;10429334;28;19921;-71
2023/02/23 12:48:24;;;;;;;;;;;;;;;14.50;60.25;99509.72;10430428;28;20027;-71
2023/02/23 12:53:35;;;;;;;;;;;;;;;14.51;61.01;99504.34;10428504;28;20110;-71
2023/02/23 12:58:55;;;;;;;;;;;;;;;14.79;60.70;99495.69;10429088;28;19925;-71
2023/02/23 13:04:21;;;;;;;;;;;;;;;14.45;62.02;99494.09;10428648;28;19931;-71
2023/02/23 13:09:52;;;;;;;;;;;;;;;14.61;62.01;99489.66;10432176;28;19975;-71
2023/02/23 13:15:14;;;;;;;;;;;;;;;14.24;63.08;99495.28;10424181;28;19921;-71
2023/02/23 13:20:20;;;;;;;;;;;;;;;14.02;64.01;99493.81;10418187;28;20299;-71
2023/02/23 13:25:42;;;;;;;;;;;;;;;13.70;65.17;99494.69;10421800;28;19921;-70
2023/02/23 13:30:46;;;;;;;;;;;;;;;13.59;66.46;99489.97;10415187;28;19956;-71
2023/02/23 13:35:48;;;;;;;;;;;;;;;13.56;66.40;99492.78;10403790;28;19921;-71
2023/02/23 13:40:57;;;;;;;;;;;;;;;13.67;66.00;99489.56;10436197;22;19921;-74
2023/02/23 13:46:01;;;;;;;;;;;;;;;13.60;66.39;99494.34;10422183;28;19921;-73
2023/02/23 13:51:15;;;;;;;;;;;;;;;13.40;68.23;99495.34;10422619;28;19928;-73
2023/02/23 13:56:20;;;;;;;;;;;;;;;13.18;69.95;99500.00;10404310;28;19975;-74
2023/02/23 14:01:28;;;;;;;;;;;;;;;13.23;69.19;99490.09;10405066;28;19925;-74
2023/02/23 14:06:31;;;;;;;;;;;;;;;12.98;70.46;99491.31;10423681;28;19921;-74
2023/02/23 14:11:46;;;;;;;;;;;;;;;13.30;69.81;99494.13;10421793;28;19925;-75
2023/02/23 14:17:07;;;;;;;;;;;;;;;13.21;70.44;99486.66;10403769;28;19921;-74
2023/02/23 14:22:12;;;;;;;;;;;;;;;12.92;72.72;99486.34;10420667;28;19921;-74
2023/02/23 14:27:22;;;;;;;;;;;;;;;12.85;74.19;99490.22;10402894;28;19990;-75
2023/02/23 14:32:52;;;;;;;;;;;;;;;12.60;76.66;99480.88;10405550;28;19921;-73
2023/02/23 14:37:55;;;;;;;;;;;;;;;12.54;79.26;99488.25;10420468;28;19928;-73
2023/02/23 14:42:59;;;;;;;;;;;;;;;12.27;82.68;99493.06;10419027;28;20359;-74
2023/02/23 14:48:04;;;;;;;;;;;;;;;12.06;86.10;99490.50;10419782;28;19924;-74
2023/02/23 14:53:10;;;;;;;;;;;;;;;11.98;88.51;99491.78;10419862;28;19928;-73
2023/02/23 14:58:26;;;;;;;;;;;;;;;11.82;92.97;99489.84;10419346;28;19931;-74
2023/02/23 15:03:27;;;;;;;;;;;;;;;11.41;97.58;99488.16;10419405;28;20012;-74
2023/02/23 15:08:30;;;;;;;;;;;;;;;11.31;100.00;99485.94;10418776;28;20306;-74
2023/02/23 15:13:36;;;;;;;;;;;;;;;11.17;100.00;99479.56;10418467;28;20361;-74
2023/02/23 15:18:39;;;;;;;;;;;;;;;11.18;100.00;99482.13;10400875;28;19936;-75
2023/02/23 15:23:44;;;;;;;;;;;;;;;11.28;100.00;99477.31;10400821;28;19927;-74
2023/02/23 15:28:45;;;;;;;;;;;;;;;11.37;100.00;99480.41;10400538;28;19967;-74
2023/02/23 15:33:49;;;;;;;;;;;;;;;11.34;100.00;99479.69;10418576;28;19928;-75
2023/02/23 15:38:54;;;;;;;;;;;;;;;11.47;100.00;99475.59;10418788;28;19975;-74
2023/02/23 15:44:13;;;;;;;;;;;;;;;11.36;100.00;99472.56;10400159;28;19921;-74
2023/02/23 15:49:16;;;;;;;;;;;;;;;11.30;100.00;99475.50;10419195;28;19921;-74
2023/02/23 15:54:23;;;;;;;;;;;;;;;11.25;100.00;99474.84;10400972;28;20382;-74
2023/02/23 15:59:27;;;;;;;;;;;;;;;11.45;100.00;99477.44;10400444;28;19921;-74
2023/02/23 16:04:35;;;;;;;;;;;;;;;11.28;100.00;99482.56;10400861;28;20333;-75
2023/02/23 16:09:38;;;;;;;;;;;;;;;11.09;100.00;99487.78;10401514;28;19921;-74
2023/02/23 16:14:39;;;;;;;;;;;;;;;11.03;100.00;99490.69;10402985;28;19974;-75
2023/02/23 16:19:42;;;;;;;;;;;;;;;11.01;100.00;99482.84;10402227;28;19967;-75
2023/02/23 16:24:48;;;;;;;;;;;;;;;11.04;100.00;99490.63;10402683;28;19921;-75
2023/02/23 16:29:55;;;;;;;;;;;;;;;11.06;100.00;99486.13;10402301;28;19988;-74
2023/02/23 16:35:17;;;;;;;;;;;;;;;10.96;100.00;99484.81;10419869;28;19950;-74
2023/02/23 16:40:19;;;;;;;;;;;;;;;10.88;100.00;99481.66;10401828;28;19992;-75
2023/02/23 16:45:20;;;;;;;;;;;;;;;10.91;100.00;99478.03;10401315;28;19975;-75
2023/02/23 16:50:23;;;;;;;;;;;;;;;10.82;100.00;99474.88;10401641;28;19921;-74
2023/02/23 16:55:27;;;;;;;;;;;;;;;10.76;100.00;99475.16;10403653;28;19979;-75
2023/02/23 17:00:30;;;;;;;;;;;;;;;10.65;100.00;99473.88;10408117;28;19994;-74
2023/02/23 17:05:32;;;;;;;;;;;;;;;10.61;100.00;99478.38;10407297;28;20298;-74
2023/02/23 17:10:34;;;;;;;;;;;;;;;10.58;100.00;99486.38;10427553;28;19929;-75
2023/02/23 17:15:37;;;;;;;;;;;;;;;10.54;100.00;99485.69;10427381;28;19923;-75
2023/02/23 17:20:39;;;;;;;;;;;;;;;10.70;100.00;99483.25;10426715;28;20008;-74
2023/02/23 17:25:41;;;;;;;;;;;;;;;10.56;100.00;99485.59;10408585;28;19967;-74
2023/02/23 17:30:43;;;;;;;;;;;;;;;10.56;100.00;99493.50;10406719;28;19929;-74
2023/02/23 17:35:45;;;;;;;;;;;;;;;10.40;100.00;99495.00;10407087;28;20362;-74
2023/02/23 17:40:47;;;;;;;;;;;;;;;10.49;100.00;99498.16;10425283;28;19921;-75
2023/02/23 17:45:49;;;;;;;;;;;;;;;10.43;100.00;99493.13;10424887;28;20397;-75
2023/02/23 17:50:57;;;;;;;;;;;;;;;10.26;100.00;99495.56;10423714;28;20341;-75
2023/02/23 17:55:59;;;;;;;;;;;;;;;10.43;100.00;99494.91;10423829;28;19960;-76
2023/02/23 18:01:02;;;;;;;;;;;;;;;10.53;100.00;99493.59;10423155;28;19921;-75
2023/02/23 18:06:05;;;;;;;;;;;;;;;10.43;100.00;99493.13;10404185;28;19960;-74
2023/02/23 18:11:07;;;;;;;;;;;;;;;10.33;100.00;99486.53;10422921;28;20276;-74
2023/02/23 18:16:09;;;;;;;;;;;;;;;10.02;100.00;99479.81;10404756;28;19920;-74
2023/02/23 18:21:12;;;;;;;;;;;;;;;10.04;100.00;99480.59;10421927;28;19921;-74
2023/02/23 18:26:15;;;;;;;;;;;;;;;10.18;100.00;99476.56;10404466;28;20309;-73
2023/02/23 18:31:19;;;;;;;;;;;;;;;9.98;100.00;99472.97;10403952;28;19920;-73
2023/02/23 18:36:26;;;;;;;;;;;;;;;9.94;100.00;99473.13;10421711;28;19971;-73
2023/02/23 18:41:29;;;;;;;;;;;;;;;9.92;100.00;99472.34;10421301;28;19925;-74
2023/02/23 18:46:31;;;;;;;;;;;;;;;9.82;100.00;99474.44;10423074;28;19921;-73
2023/02/23 18:51:33;;;;;;;;;;;;;;;9.64;100.00;99478.59;10421955;28;19929;-73
2023/02/23 18:56:35;;;;;;;;;;;;;;;9.61;100.00;99470.88;10403389;28;20024;-74
2023/02/23 19:01:36;;;;;;;;;;;;;;;9.61;100.00;99478.75;10402836;28;20398;-73
2023/02/23 19:06:40;;;;;;;;;;;;;;;9.49;100.00;99474.78;10420509;28;19987;-73
2023/02/23 19:11:42;;;;;;;;;;;;;;;9.53;100.00;99470.28;10401835;28;19921;-73
2023/02/23 19:16:44;;;;;;;;;;;;;;;9.58;100.00;99477.06;10419656;28;19925;-73
2023/02/23 19:21:45;;;;;;;;;;;;;;;9.54;100.00;99472.84;10402693;28;19927;-73
2023/02/23 19:26:47;;;;;;;;;;;;;;;9.53;100.00;99467.66;10422014;28;19975;-72
2023/02/23 19:31:49;;;;;;;;;;;;;;;9.61;100.00;99468.25;10421043;28;19921;-73
2023/02/23 19:36:51;;;;;;;;;;;;;;;9.56;100.00;99468.41;10419672;28;20318;-73
2023/02/23 19:41:53;;;;;;;;;;;;;;;9.70;100.00;99461.81;10449741;23;19927;-73
2023/02/23 19:46:55;;;;;;;;;;;;;;;9.71;100.00;99450.38;10440589;28;20395;-72
2023/02/23 19:51:57;;;;;;;;;;;;;;;9.60;100.00;99456.88;10457146;28;19924;-71
2023/02/23 19:56:59;;;;;;;;;;;;;;;9.68;100.00;99461.00;10420583;28;19928;-71
2023/02/23 20:02:00;;;;;;;;;;;;;;;9.60;100.00;99448.16;10415333;28;19921;-72
2023/02/23 20:07:02;;;;;;;;;;;;;;;9.48;100.00;99446.84;10415838;28;20020;-72
2023/02/23 20:12:04;;;;;;;;;;;;;;;9.38;100.00;99441.97;10435622;28;19921;-72
2023/02/23 20:17:07;;;;;;;;;;;;;;;9.45;100.00;99441.69;10456575;28;19920;-72
2023/02/23 20:22:09;;;;;;;;;;;;;;;9.35;100.00;99445.59;10438406;28;19935;-72
2023/02/23 20:27:10;;;;;;;;;;;;;;;9.43;100.00;99443.53;10457000;28;20027;-72
2023/02/23 20:32:12;;;;;;;;;;;;;;;9.41;100.00;99436.63;10462039;28;19921;-72
2023/02/23 20:37:14;;;;;;;;;;;;;;;9.23;100.00;99432.91;10465152;28;20011;-72
2023/02/23 20:42:15;;;;;;;;;;;;;;;9.25;100.00;99428.44;10465092;28;19921;-72
2023/02/23 20:47:17;;;;;;;;;;;;;;;9.21;100.00;99424.22;10465899;28;19928;-72
2023/02/23 20:52:18;;;;;;;;;;;;;;;9.28;100.00;99423.94;10464531;28;20377;-71
2023/02/23 20:57:20;;;;;;;;;;;;;;;9.19;100.00;99426.91;10464041;28;19921;-72
2023/02/23 21:02:21;;;;;;;;;;;;;;;9.22;100.00;99420.72;10464045;28;19967;-72
2023/02/23 21:07:25;;;;;;;;;;;;;;;9.27;100.00;99414.38;10463695;28;20019;-72
2023/02/23 21:12:26;;;;;;;;;;;;;;;9.28;100.00;99413.47;10464911;28;20286;-72
2023/02/23 21:17:28;;;;;;;;;;;;;;;9.15;100.00;99411.34;10462663;28;19931;-72
2023/02/23 21:22:30;;;;;;;;;;;;;;;9.11;100.00;99418.44;10463193;28;19920;-71
2023/02/23 21:27:31;;;;;;;;;;;;;;;9.14;100.00;99414.88;10462651;28;19921;-71
2023/02/23 21:32:39;;;;;;;;;;;;;;;9.30;100.00;99405.56;10463705;28;19927;-71
2023/02/23 21:37:42;;;;;;;;;;;;;;;9.23;100.00;99407.53;10444804;28;19928;-72
2023/02/23 21:42:44;;;;;;;;;;;;;;;9.20;100.00;99414.66;10442986;28;19921;-72
2023/02/23 21:47:47;;;;;;;;;;;;;;;9.03;100.00;99402.13;10461863;28;19921;-72
2023/02/23 21:52:51;;;;;;;;;;;;;;;8.80;100.00;99403.78;10462242;28;20011;-72
2023/02/23 21:57:53;;;;;;;;;;;;;;;8.69;100.00;99402.47;10463219;28;19974;-71
2023/02/23 22:02:55;;;;;;;;;;;;;;;8.63;100.00;99400.91;10462468;28;19967;-71
2023/02/23 22:07:57;;;;;;;;;;;;;;;8.61;100.00;99404.50;10461492;28;19924;-72
2023/02/23 22:12:59;;;;;;;;;;;;;;;8.53;100.00;99409.97;10461953;28;19921;-72
2023/02/23 22:18:01;;;;;;;;;;;;;;;8.51;100.00;99398.72;10462432;28;19927;-72
2023/02/23 22:23:02;;;;;;;;;;;;;;;8.47;100.00;99403.19;10462026;28;20364;-70
2023/02/23 22:28:07;;;;;;;;;;;;;;;8.39;100.00;99394.72;10462077;28;19962;-71
2023/02/23 22:33:10;;;;;;;;;;;;;;;8.23;100.00;99389.09;10462134;28;20344;-71
2023/02/23 22:38:13;;;;;;;;;;;;;;;8.25;100.00;99403.00;10428464;28;19921;-72
2023/02/23 22:43:15;;;;;;;;;;;;;;;8.24;100.00;99390.81;10461022;28;20056;-71
2023/02/23 22:48:17;;;;;;;;;;;;;;;8.52;100.00;99388.16;10461364;28;19969;-71
2023/02/23 22:53:19;;;;;;;;;;;;;;;8.54;100.00;99380.25;10458614;28;19921;-71
2023/02/23 22:58:25;;;;;;;;;;;;;;;8.34;100.00;99373.91;10460636;28;19920;-72
2023/02/23 23:03:34;;;;;;;;;;;;;;;8.35;100.00;99379.97;10443206;28;19978;-72
2023/02/23 23:08:38;;;;;;;;;;;;;;;8.44;100.00;99366.63;10461015;28;20420;-72
2023/02/23 23:13:43;;;;;;;;;;;;;;;8.55;100.00;99363.66;10458483;28;19970;-72
2023/02/23 23:18:48;;;;;;;;;;;;;;;8.62;100.00;99364.28;10459191;28;19971;-72
2023/02/23 23:23:51;;;;;;;;;;;;;;;8.70;100.00;99368.34;10459495;28;19928;-72
2023/02/23 23:28:53;;;;;;;;;;;;;;;8.67;100.00;99367.59;10457895;28;19924;-72
2023/02/23 23:33:58;;;;;;;;;;;;;;;8.44;100.00;99371.84;10459100;28;19927;-72
2023/02/23 23:39:01;;;;;;;;;;;;;;;8.39;100.00;99365.91;10439512;28;19924;-72
2023/02/23 23:44:04;;;;;;;;;;;;;;;8.35;100.00;99367.75;10458171;28;20301;-72
2023/02/23 23:49:10;;;;;;;;;;;;;;;8.07;100.00;99357.34;10439599;28;20400;-72
2023/02/23 23:54:13;;;;;;;;;;;;;;;7.85;100.00;99345.84;10457183;28;19920;-72
2023/02/23 23:59:19;;;;;;;;;;;;;;;7.91;100.00;99343.03;10457225;28;20283;-72
